createdAt,value
2023-05-17T00:02:23.477Z,99588.75
2023-05-17T00:05:26.157Z,99581.78
2023-05-17T00:08:29.278Z,99594.06
2023-05-17T00:11:31.980Z,99598.44
2023-05-17T00:14:35.857Z,99597.56
2023-05-17T00:17:38.480Z,99599.31
2023-05-17T00:20:41.063Z,99593.19
2023-05-17T00:23:43.837Z,99601.94
2023-05-17T00:26:46.381Z,99586.16
2023-05-17T00:29:49.152Z,99597.53
2023-05-17T00:32:51.700Z,99595.81
2023-05-17T00:35:54.392Z,99588.78
2023-05-17T00:38:56.978Z,99588.81
2023-05-17T00:42:00.280Z,99592.28
2023-05-17T00:45:02.790Z,99591.44
2023-05-17T00:48:06.065Z,99594.94
2023-05-17T00:51:08.780Z,99593.22
2023-05-17T00:54:11.478Z,99594.97
2023-05-17T00:57:14.680Z,99597.59
2023-05-17T01:00:17.300Z,99602.00
2023-05-17T01:03:22.882Z,99605.50
2023-05-17T01:06:26.658Z,99603.72
2023-05-17T01:09:29.896Z,99601.97
2023-05-17T01:12:43.378Z,99609.88
2023-05-17T01:15:49.315Z,99598.47
2023-05-17T01:19:10.881Z,99606.34
2023-05-17T01:22:36.976Z,99599.34
2023-05-17T01:25:57.906Z,99604.63
2023-05-17T01:29:00.678Z,99594.06
2023-05-17T01:32:03.645Z,99590.56
2023-05-17T01:35:06.410Z,99587.09
2023-05-17T01:38:10.869Z,99585.31
2023-05-17T01:41:34.533Z,99573.91
2023-05-17T01:44:59.037Z,99566.94
2023-05-17T01:48:10.772Z,99564.31
2023-05-17T01:51:15.965Z,99565.19
2023-05-17T01:54:22.229Z,99570.44
2023-05-17T01:57:26.268Z,99584.47
2023-05-17T02:00:29.763Z,99588.84
2023-05-17T02:03:34.321Z,99587.94
2023-05-17T02:06:36.995Z,99584.44
2023-05-17T02:09:39.537Z,99590.56
2023-05-17T02:12:42.745Z,99586.16
2023-05-17T02:15:45.430Z,99589.69
2023-05-17T02:18:48.011Z,99580.88
2023-05-17T02:21:50.902Z,99594.91
2023-05-17T02:24:53.402Z,99595.81
2023-05-17T02:27:56.455Z,99594.88
2023-05-17T02:30:59.132Z,99602.78
2023-05-17T02:34:01.561Z,99610.66
2023-05-17T02:37:04.593Z,99625.59
2023-05-17T02:40:09.974Z,99617.72
2023-05-17T02:43:13.053Z,99617.72
2023-05-17T02:46:15.861Z,99613.31
2023-05-17T02:49:20.174Z,99619.47
2023-05-17T02:52:23.160Z,99617.69
2023-05-17T02:55:25.802Z,99612.47
2023-05-17T02:58:28.400Z,99616.84
2023-05-17T03:01:30.879Z,99613.34
2023-05-17T03:04:33.944Z,99621.25
2023-05-17T03:07:37.114Z,99623.88
2023-05-17T03:10:39.524Z,99627.38
2023-05-17T03:13:44.098Z,99623.88
2023-05-17T03:16:47.818Z,99621.25
2023-05-17T03:19:51.003Z,99624.78
2023-05-17T03:22:53.472Z,99612.50
2023-05-17T03:25:56.829Z,99614.25
2023-05-17T03:28:59.653Z,99621.25
2023-05-17T03:32:03.046Z,99622.13
2023-05-17T03:35:07.063Z,99623.00
2023-05-17T03:38:10.668Z,99629.16
2023-05-17T03:41:13.228Z,99630.91
2023-05-17T03:44:16.079Z,99650.22
2023-05-17T03:47:18.573Z,99664.22
2023-05-17T03:50:21.359Z,99674.75
2023-05-17T03:53:24.116Z,99680.00
2023-05-17T03:56:26.605Z,99680.88
2023-05-17T03:59:29.339Z,99688.75
2023-05-17T04:02:32.096Z,99677.34
2023-05-17T04:05:34.680Z,99678.25
2023-05-17T04:08:38.043Z,99667.72
2023-05-17T04:11:41.215Z,99677.34
2023-05-17T04:14:43.733Z,99685.25
2023-05-17T04:17:46.403Z,99691.38
2023-05-17T04:20:50.101Z,99695.78
2023-05-17T04:23:54.539Z,99699.25
2023-05-17T04:26:57.150Z,99696.59
2023-05-17T04:30:00.900Z,99696.59
2023-05-17T04:33:04.071Z,99706.25
2023-05-17T04:36:07.602Z,99720.31
2023-05-17T04:39:11.284Z,99738.75
2023-05-17T04:42:15.541Z,99744.88
2023-05-17T04:45:24.139Z,99739.59
2023-05-17T04:48:27.762Z,99744.00
2023-05-17T04:51:30.985Z,99758.00
2023-05-17T04:54:33.810Z,99756.22
2023-05-17T04:57:36.673Z,99750.91
2023-05-17T05:00:41.255Z,99754.44
2023-05-17T05:03:45.774Z,99757.09
2023-05-17T05:06:49.259Z,99766.78
2023-05-17T05:09:52.345Z,99768.50
2023-05-17T05:12:58.201Z,99768.53
2023-05-17T05:16:01.391Z,99754.34
2023-05-17T05:19:04.963Z,99756.94
2023-05-17T05:22:07.930Z,99760.47
2023-05-17T05:25:12.814Z,99762.25
2023-05-17T05:28:15.534Z,99759.59
2023-05-17T05:31:18.452Z,99768.34
2023-05-17T05:34:28.640Z,99771.00
2023-05-17T05:37:31.651Z,99785.09
2023-05-17T05:40:34.533Z,99780.63
2023-05-17T05:43:38.037Z,99792.94
2023-05-17T05:46:40.796Z,99786.66
2023-05-17T05:49:43.412Z,99780.38
2023-05-17T05:52:46.124Z,99788.25
2023-05-17T05:55:49.559Z,99775.97
2023-05-17T05:58:52.791Z,99769.78
2023-05-17T06:01:55.553Z,99767.91
2023-05-17T06:04:57.936Z,99767.03
2023-05-17T06:08:00.522Z,99782.81
2023-05-17T06:11:03.004Z,99791.63
2023-05-17T06:14:05.492Z,99791.56
2023-05-17T06:17:08.579Z,99791.63
2023-05-17T06:20:14.263Z,99798.59
2023-05-17T06:23:17.572Z,99797.69
2023-05-17T06:26:20.432Z,99795.91
2023-05-17T06:29:24.163Z,99795.91
2023-05-17T06:32:27.620Z,99799.38
2023-05-17T06:35:37.533Z,99794.88
2023-05-17T06:38:47.085Z,99808.91
2023-05-17T06:41:49.589Z,99802.78
2023-05-17T06:44:54.578Z,99816.00
2023-05-17T06:47:57.475Z,99822.97
2023-05-17T06:51:00.048Z,99822.97
2023-05-17T06:54:02.750Z,99818.53
2023-05-17T06:57:05.701Z,99826.41
2023-05-17T07:00:11.296Z,99828.09
2023-05-17T07:03:14.292Z,99828.16
2023-05-17T07:06:16.876Z,99836.97
2023-05-17T07:09:20.722Z,99840.53
2023-05-17T07:12:26.291Z,99846.75
2023-05-17T07:15:28.994Z,99843.41
2023-05-17T07:18:31.985Z,99843.44
2023-05-17T07:21:34.386Z,99843.47
2023-05-17T07:24:37.151Z,99843.47
2023-05-17T07:27:39.540Z,99845.22
2023-05-17T07:30:42.114Z,99844.22
2023-05-17T07:33:44.763Z,99847.69
2023-05-17T07:36:47.355Z,99849.53
2023-05-17T07:39:49.822Z,99846.88
2023-05-17T07:42:53.155Z,99848.59
2023-05-17T07:45:58.147Z,99850.44
2023-05-17T07:49:00.856Z,99856.66
2023-05-17T07:52:04.182Z,99852.31
2023-05-17T07:55:07.373Z,99853.97
2023-05-17T07:58:12.788Z,99852.22
2023-05-17T08:01:15.444Z,99860.19
2023-05-17T08:04:19.498Z,99858.34
2023-05-17T08:07:22.277Z,99861.94
2023-05-17T08:10:24.876Z,99862.81
2023-05-17T08:13:27.410Z,99871.69
2023-05-17T08:16:29.927Z,99876.97
2023-05-17T08:19:32.850Z,99879.59
2023-05-17T08:22:35.717Z,99874.28
2023-05-17T08:25:38.518Z,99879.50
2023-05-17T08:28:40.954Z,99872.31
2023-05-17T08:31:44.367Z,99884.41
2023-05-17T08:34:47.445Z,99881.63
2023-05-17T08:37:50.034Z,99875.59
2023-05-17T08:40:56.092Z,99881.78
2023-05-17T08:43:59.196Z,99884.22
2023-05-17T08:47:02.352Z,99879.66
2023-05-17T08:50:06.244Z,99884.88
2023-05-17T08:53:09.569Z,99887.44
2023-05-17T08:56:12.992Z,99883.63
2023-05-17T08:59:15.662Z,99874.59
2023-05-17T09:02:20.736Z,99868.28
2023-05-17T09:05:24.448Z,99867.47
2023-05-17T09:09:01.726Z,99872.78
2023-05-17T09:12:25.560Z,99868.25
2023-05-17T09:15:32.085Z,99872.63
2023-05-17T09:18:34.737Z,99858.50
2023-05-17T09:21:37.854Z,99869.25
2023-05-17T09:24:41.215Z,99871.88
2023-05-17T09:27:43.727Z,99878.84
2023-05-17T09:30:48.316Z,99878.91
2023-05-17T09:33:50.781Z,99889.72
2023-05-17T09:36:54.897Z,99897.00
2023-05-17T09:39:57.404Z,99908.47
2023-05-17T09:43:00.037Z,99899.78
2023-05-17T09:46:02.632Z,99909.28
2023-05-17T09:49:05.668Z,99911.66
2023-05-17T09:52:09.462Z,99910.41
2023-05-17T09:55:12.049Z,99908.22
2023-05-17T09:58:14.646Z,99917.78
2023-05-17T10:01:17.182Z,99900.19
2023-05-17T10:04:20.825Z,99906.84
2023-05-17T10:07:26.103Z,99912.72
2023-05-17T10:10:28.827Z,99907.22
2023-05-17T10:13:36.458Z,99905.72
2023-05-17T10:16:39.209Z,99903.22
2023-05-17T10:19:42.196Z,99915.47
2023-05-17T10:22:44.724Z,99913.25
2023-05-17T10:25:49.468Z,99910.94
2023-05-17T10:28:53.587Z,99916.72
2023-05-17T10:31:56.124Z,99900.09
2023-05-17T10:35:10.356Z,99907.53
2023-05-17T10:38:14.596Z,99917.03
2023-05-17T10:41:18.679Z,99915.34
2023-05-17T10:44:22.019Z,99916.72
2023-05-17T10:47:32.318Z,99925.16
2023-05-17T10:50:41.145Z,99920.56
2023-05-17T10:54:10.420Z,99924.56
2023-05-17T10:57:50.759Z,99926.91
2023-05-17T11:00:55.957Z,99929.66
2023-05-17T11:03:59.132Z,99937.34
2023-05-17T11:07:17.372Z,99933.03
2023-05-17T11:10:20.013Z,99944.72
2023-05-17T11:13:23.484Z,99937.13
2023-05-17T11:16:37.352Z,99944.38
2023-05-17T11:19:39.909Z,99940.78
2023-05-17T11:22:43.800Z,99935.16
2023-05-17T11:25:49.148Z,99943.63
2023-05-17T11:29:02.406Z,99947.50
2023-05-17T11:32:10.086Z,99958.66
2023-05-17T11:35:12.933Z,99954.91
2023-05-17T11:38:21.961Z,99959.09
2023-05-17T11:41:27.321Z,99958.38
2023-05-17T11:44:31.631Z,99967.22
2023-05-17T11:47:34.637Z,99961.09
2023-05-17T11:50:37.846Z,99972.06
2023-05-17T11:53:42.015Z,99974.88
2023-05-17T11:56:44.812Z,99967.34
2023-05-17T11:59:47.421Z,99971.16
2023-05-17T12:02:49.801Z,99977.16
2023-05-17T12:06:02.138Z,99972.63
2023-05-17T12:09:06.469Z,99977.78
2023-05-17T12:12:08.984Z,99982.09
2023-05-17T12:15:17.905Z,99973.94
2023-05-17T12:18:21.069Z,99978.78
2023-05-17T12:21:23.662Z,99974.47
2023-05-17T12:24:26.288Z,99973.41
2023-05-17T12:27:28.788Z,99974.78
2023-05-17T12:30:31.631Z,99974.94
2023-05-17T12:33:36.606Z,99970.50
2023-05-17T12:36:39.360Z,99968.69
2023-05-17T12:39:41.880Z,99969.72
2023-05-17T12:42:44.461Z,99976.47
2023-05-17T12:45:47.883Z,99981.06
2023-05-17T12:48:52.082Z,99975.97
2023-05-17T12:51:54.851Z,99977.56
2023-05-17T12:55:01.626Z,99979.66
2023-05-17T12:58:04.828Z,99980.53
2023-05-17T13:01:08.357Z,99989.44
2023-05-17T13:04:11.352Z,99988.84
2023-05-17T13:07:21.529Z,99989.09
2023-05-17T13:10:28.829Z,99998.63
2023-05-17T13:13:33.411Z,99992.88
2023-05-17T13:16:39.903Z,99992.34
2023-05-17T13:19:42.662Z,99997.97
2023-05-17T13:22:49.046Z,100003.31
2023-05-17T13:25:51.931Z,99998.84
2023-05-17T13:28:54.795Z,99995.78
2023-05-17T13:31:57.866Z,99982.25
2023-05-17T13:35:02.073Z,99987.22
2023-05-17T13:38:04.724Z,99969.25
2023-05-17T13:41:09.154Z,99977.78
2023-05-17T13:44:12.530Z,99975.31
2023-05-17T13:47:15.581Z,99978.13
2023-05-17T13:50:19.644Z,99986.28
2023-05-17T13:53:22.208Z,99995.78
2023-05-17T13:56:24.803Z,99994.28
2023-05-17T13:59:27.097Z,99997.13
2023-05-17T14:02:29.607Z,99995.56
2023-05-17T14:05:33.978Z,99995.75
2023-05-17T14:08:36.477Z,99994.38
2023-05-17T14:11:39.175Z,99993.09
2023-05-17T14:14:41.788Z,100011.88
2023-05-17T14:17:44.330Z,100010.47
2023-05-17T14:20:47.253Z,100015.56
2023-05-17T14:23:49.936Z,100019.34
2023-05-17T14:26:53.743Z,100019.84
2023-05-17T14:29:56.258Z,100022.13
2023-05-17T14:32:59.320Z,100029.34
2023-05-17T14:36:02.214Z,100032.50
2023-05-17T14:39:05.562Z,100043.44
2023-05-17T14:42:08.130Z,100042.69
2023-05-17T14:45:10.986Z,100052.94
2023-05-17T14:48:13.971Z,100049.56
2023-05-17T14:51:16.987Z,100050.31
2023-05-17T14:54:19.430Z,100054.97
2023-05-17T14:57:21.986Z,100057.44
2023-05-17T15:00:24.766Z,100060.50
2023-05-17T15:03:27.368Z,100061.66
2023-05-17T15:06:30.447Z,100067.97
2023-05-17T15:09:39.242Z,100071.72
2023-05-17T15:12:41.780Z,100077.28
2023-05-17T15:15:44.905Z,100077.25
2023-05-17T15:18:47.824Z,100078.03
2023-05-17T15:21:50.656Z,100095.94
2023-05-17T15:24:54.374Z,100100.75
2023-05-17T15:27:57.020Z,100086.81
2023-05-17T15:31:03.500Z,100104.75
2023-05-17T15:34:06.168Z,100107.81
2023-05-17T15:37:08.967Z,100107.28
2023-05-17T15:40:13.673Z,100111.91
2023-05-17T15:43:18.022Z,100111.06
2023-05-17T15:46:23.821Z,100111.34
2023-05-17T15:49:33.788Z,100111.47
2023-05-17T15:52:36.587Z,100117.72
2023-05-17T15:55:39.423Z,100114.16
2023-05-17T15:58:42.216Z,100109.00
2023-05-17T16:01:46.528Z,100128.34
2023-05-17T16:04:48.982Z,100118.78
2023-05-17T16:07:52.266Z,100131.09
2023-05-17T16:10:54.948Z,100132.06
2023-05-17T16:13:57.738Z,100128.69
2023-05-17T16:17:00.829Z,100141.03
2023-05-17T16:20:03.993Z,100140.16
2023-05-17T16:23:08.368Z,100147.19
2023-05-17T16:26:14.248Z,100158.69
2023-05-17T16:29:18.616Z,100165.75
2023-05-17T16:32:33.332Z,100161.34
2023-05-17T16:35:57.726Z,100168.41
2023-05-17T16:39:00.305Z,100175.44
2023-05-17T16:42:03.070Z,100173.66
2023-05-17T16:45:07.943Z,100169.25
2023-05-17T16:48:13.432Z,100184.19
2023-05-17T16:51:16.318Z,100187.66
2023-05-17T16:54:19.056Z,100178.84
2023-05-17T16:57:25.004Z,100170.03
2023-05-17T17:00:30.025Z,100183.19
2023-05-17T17:03:35.742Z,100198.06
2023-05-17T17:06:38.475Z,100195.38
2023-05-17T17:09:41.072Z,100200.66
2023-05-17T17:12:43.825Z,100201.50
2023-05-17T17:15:47.027Z,100199.75
2023-05-17T17:18:49.950Z,100203.16
2023-05-17T17:21:52.736Z,100209.28
2023-05-17T17:24:55.419Z,100198.78
2023-05-17T17:27:59.435Z,100200.44
2023-05-17T17:31:02.039Z,100208.38
2023-05-17T17:34:05.156Z,100212.75
2023-05-17T17:37:07.631Z,100218.91
2023-05-17T17:40:11.251Z,100225.13
2023-05-17T17:43:14.442Z,100211.09
2023-05-17T17:46:17.238Z,100214.41
2023-05-17T17:49:20.242Z,100224.06
2023-05-17T17:52:22.838Z,100226.69
2023-05-17T17:55:26.152Z,100213.56
2023-05-17T17:58:29.986Z,100214.38
2023-05-17T18:01:34.241Z,100219.53
2023-05-17T18:04:37.481Z,100216.81
2023-05-17T18:07:40.457Z,100222.84
2023-05-17T18:10:43.260Z,100213.94
2023-05-17T18:13:46.634Z,100218.16
2023-05-17T18:16:49.180Z,100240.03
2023-05-17T18:19:52.660Z,100233.81
2023-05-17T18:22:56.066Z,100247.78
2023-05-17T18:25:58.613Z,100240.59
2023-05-17T18:29:01.360Z,100246.00
2023-05-17T18:32:04.228Z,100249.38
2023-05-17T18:35:06.983Z,100236.97
2023-05-17T18:38:09.570Z,100244.03
2023-05-17T18:41:12.562Z,100249.25
2023-05-17T18:44:16.203Z,100252.06
2023-05-17T18:47:19.975Z,100251.28
2023-05-17T18:50:22.866Z,100252.13
2023-05-17T18:53:26.480Z,100248.59
2023-05-17T18:56:30.494Z,100253.03
2023-05-17T18:59:33.207Z,100240.72
2023-05-17T19:02:37.108Z,100258.25
2023-05-17T19:05:39.614Z,100262.63
2023-05-17T19:08:43.325Z,100273.19
2023-05-17T19:11:46.002Z,100284.56
2023-05-17T19:14:50.621Z,100277.63
2023-05-17T19:17:54.228Z,100274.06
2023-05-17T19:20:57.315Z,100281.94
2023-05-17T19:24:00.903Z,100285.50
2023-05-17T19:27:03.370Z,100296.97
2023-05-17T19:30:07.334Z,100305.91
2023-05-17T19:33:11.972Z,100297.16
2023-05-17T19:36:14.909Z,100303.25
2023-05-17T19:39:19.805Z,100307.66
2023-05-17T19:42:22.619Z,100318.13
2023-05-17T19:45:25.787Z,100319.88
2023-05-17T19:48:28.775Z,100328.53
2023-05-17T19:51:32.077Z,100325.91
2023-05-17T19:54:34.528Z,100330.31
2023-05-17T19:57:37.239Z,100333.72
2023-05-17T20:00:39.991Z,100333.72
2023-05-17T20:03:42.775Z,100349.50
2023-05-17T20:06:45.705Z,100346.88
2023-05-17T20:09:48.172Z,100343.50
2023-05-17T20:12:51.218Z,100338.25
2023-05-17T20:15:53.590Z,100336.56
2023-05-17T20:18:58.122Z,100336.44
2023-05-17T20:22:01.902Z,100331.34
2023-05-17T20:25:04.727Z,100336.56
2023-05-17T20:28:07.291Z,100332.19
2023-05-17T20:31:10.177Z,100326.91
2023-05-17T20:34:13.012Z,100338.28
2023-05-17T20:37:15.640Z,100337.31
2023-05-17T20:40:18.410Z,100339.13
2023-05-17T20:43:21.044Z,100347.72
2023-05-17T20:46:23.696Z,100349.56
2023-05-17T20:49:26.412Z,100349.53
2023-05-17T20:52:39.000Z,100360.91
2023-05-17T20:55:44.391Z,100365.25
2023-05-17T20:58:48.126Z,100361.78
2023-05-17T21:01:51.035Z,100381.88
2023-05-17T21:04:54.810Z,100388.88
2023-05-17T21:07:59.755Z,100385.44
2023-05-17T21:11:02.349Z,100380.97
2023-05-17T21:14:05.156Z,100388.06
2023-05-17T21:17:07.918Z,100388.81
2023-05-17T21:20:10.952Z,100373.09
2023-05-17T21:23:13.583Z,100390.66
2023-05-17T21:26:16.126Z,100390.69
2023-05-17T21:29:19.374Z,100386.25
2023-05-17T21:32:21.977Z,100387.09
2023-05-17T21:35:24.379Z,100392.38
2023-05-17T21:38:26.843Z,100395.97
2023-05-17T21:41:29.330Z,100392.28
2023-05-17T21:44:32.263Z,100403.69
2023-05-17T21:47:38.038Z,100399.28
2023-05-17T21:50:40.850Z,100388.78
2023-05-17T21:53:43.311Z,100407.16
2023-05-17T21:56:45.907Z,100407.13
2023-05-17T21:59:49.710Z,100401.03
2023-05-17T22:02:52.417Z,100401.91
2023-05-17T22:05:55.252Z,100404.41
2023-05-17T22:08:57.742Z,100400.00
2023-05-17T22:12:00.656Z,100398.19
2023-05-17T22:15:03.404Z,100403.31
2023-05-17T22:18:06.185Z,100398.97
2023-05-17T22:21:09.606Z,100409.44
2023-05-17T22:24:12.170Z,100403.47
2023-05-17T22:27:15.594Z,100406.13
2023-05-17T22:30:18.477Z,100399.91
2023-05-17T22:33:23.649Z,100417.56
2023-05-17T22:36:26.851Z,100416.63
2023-05-17T22:39:29.742Z,100426.16
2023-05-17T22:42:32.972Z,100426.97
2023-05-17T22:45:35.657Z,100426.09
2023-05-17T22:48:38.797Z,100430.56
2023-05-17T22:51:41.402Z,100434.09
2023-05-17T22:54:43.965Z,100436.72
2023-05-17T22:57:46.833Z,100434.13
2023-05-17T23:00:53.299Z,100446.94
2023-05-17T23:03:56.023Z,100447.78
2023-05-17T23:07:02.251Z,100439.97
2023-05-17T23:10:05.729Z,100445.28
2023-05-17T23:13:08.795Z,100445.34
2023-05-17T23:16:14.164Z,100448.63
2023-05-17T23:19:21.205Z,100444.22
2023-05-17T23:22:23.758Z,100449.50
2023-05-17T23:25:27.811Z,100444.06
2023-05-17T23:28:30.447Z,100445.81
2023-05-17T23:31:34.163Z,100449.19
2023-05-17T23:34:36.800Z,100458.09
2023-05-17T23:37:39.457Z,100454.56
2023-05-17T23:40:42.335Z,100448.38
2023-05-17T23:43:45.038Z,100453.59
2023-05-17T23:46:47.578Z,100454.47
2023-05-17T23:49:50.401Z,100450.13
2023-05-17T23:52:52.882Z,100460.66
2023-05-17T23:55:55.610Z,100460.78
2023-05-17T23:58:58.246Z,100460.66
